createdAt,value
2019-01-23T00:00:45.384Z,55.57
2019-01-23T00:05:52.722Z,35.03
2019-01-23T00:10:59.282Z,45.43
2019-01-23T00:16:05.764Z,50.47
2019-01-23T00:21:11.997Z,40.63
2019-01-23T00:26:18.234Z,44.33
2019-01-23T00:31:24.368Z,51.77
2019-01-23T00:36:30.910Z,54.53
2019-01-23T00:41:37.378Z,48.03
2019-01-23T00:46:42.976Z,54.77
2019-01-23T00:51:49.554Z,49.70
2019-01-23T00:56:56.232Z,50.70
2019-01-23T01:02:02.757Z,46.40
2019-01-23T01:07:09.419Z,49.87
2019-01-23T01:12:15.950Z,48.67
2019-01-23T01:17:22.580Z,53.43
2019-01-23T01:22:29.020Z,50.33
2019-01-23T01:27:35.136Z,49.77
2019-01-23T01:32:40.823Z,50.47
2019-01-23T01:37:46.451Z,45.57
2019-01-23T01:42:53.176Z,49.80
2019-01-23T01:47:59.328Z,52.73
2019-01-23T01:53:05.565Z,53.47
2019-01-23T01:58:11.887Z,49.17
2019-01-23T02:03:36.914Z,54.37
2019-01-23T02:08:43.637Z,52.60
2019-01-23T02:14:11.643Z,49.73
2019-01-23T02:19:18.521Z,50.77
2019-01-23T02:24:43.590Z,56.27
2019-01-23T02:29:49.223Z,50.73
2019-01-23T02:34:54.909Z,53.00
2019-01-23T02:40:01.083Z,50.10
2019-01-23T02:45:28.296Z,52.50
2019-01-23T02:50:35.116Z,67.73
2019-01-23T02:55:40.833Z,54.77
2019-01-23T03:00:48.548Z,52.87
2019-01-23T03:05:55.365Z,54.60
2019-01-23T03:11:01.911Z,53.17
2019-01-23T03:16:08.384Z,49.57
2019-01-23T03:21:14.893Z,54.00
2019-01-23T03:26:21.453Z,56.77
2019-01-23T03:31:27.927Z,58.70
2019-01-23T03:36:34.418Z,53.63
2019-01-23T03:41:41.281Z,61.40
2019-01-23T03:46:47.917Z,63.23
2019-01-23T03:51:55.180Z,63.03
2019-01-23T03:57:20.182Z,61.47
2019-01-23T04:02:26.775Z,53.23
2019-01-23T04:07:32.777Z,54.97
2019-01-23T04:12:38.995Z,56.17
2019-01-23T04:17:44.634Z,57.43
2019-01-23T04:23:03.259Z,64.80
2019-01-23T04:28:09.891Z,52.40
2019-01-23T04:33:16.775Z,59.63
2019-01-23T04:38:23.505Z,63.57
2019-01-23T04:43:30.245Z,56.00
2019-01-23T04:48:36.744Z,59.73
2019-01-23T04:53:43.975Z,59.30
2019-01-23T04:58:50.530Z,70.27
2019-01-23T05:03:57.332Z,57.90
2019-01-23T05:09:04.137Z,54.30
2019-01-23T05:14:33.130Z,69.97
2019-01-23T05:19:39.431Z,57.30
2019-01-23T05:24:45.119Z,68.07
2019-01-23T05:29:55.049Z,71.30
2019-01-23T05:34:59.904Z,65.77
2019-01-23T05:40:09.890Z,55.80
2019-01-23T05:45:16.447Z,66.13
2019-01-23T05:50:23.054Z,75.40
2019-01-23T05:55:31.191Z,73.80
2019-01-23T06:00:37.785Z,64.00
2019-01-23T06:05:44.559Z,63.83
2019-01-23T06:10:51.195Z,79.37
2019-01-23T06:15:57.796Z,73.63
2019-01-23T06:21:04.345Z,72.60
2019-01-23T06:26:10.955Z,67.37
2019-01-23T06:31:17.455Z,76.50
2019-01-23T06:36:24.354Z,67.57
2019-01-23T06:41:30.756Z,74.87
2019-01-23T06:46:55.722Z,78.10
2019-01-23T06:52:02.264Z,78.70
2019-01-23T06:57:08.811Z,77.43
2019-01-23T07:02:15.192Z,75.77
2019-01-23T07:07:21.501Z,80.17
2019-01-23T07:12:28.162Z,73.93
2019-01-23T07:17:35.299Z,85.83
2019-01-23T07:22:40.920Z,80.53
2019-01-23T07:27:48.323Z,86.73
2019-01-23T07:32:54.939Z,77.63
2019-01-23T07:38:01.690Z,83.00
2019-01-23T07:43:08.394Z,82.67
2019-01-23T07:48:14.890Z,95.90
2019-01-23T07:53:21.486Z,83.67
2019-01-23T07:58:28.096Z,89.90
2019-01-23T08:03:56.079Z,81.30
2019-01-23T08:09:02.611Z,75.60
2019-01-23T08:14:10.541Z,87.47
2019-01-23T08:19:17.122Z,41.47
2019-01-23T08:24:23.730Z,30.43
2019-01-23T08:29:30.573Z,92.40
2019-01-23T08:34:36.733Z,98.37
2019-01-23T08:39:42.420Z,86.07
2019-01-23T08:44:49.041Z,89.73
2019-01-23T08:49:55.649Z,90.37
2019-01-23T08:55:03.335Z,86.97
2019-01-23T09:06:39.417Z,72.40
2019-01-23T09:11:45.076Z,87.93
2019-01-23T09:16:51.779Z,87.03
2019-01-23T09:21:58.469Z,81.37
2019-01-23T09:27:04.638Z,88.37
2019-01-23T09:32:46.804Z,74.60
2019-01-23T09:38:28.128Z,75.27
2019-01-23T09:43:52.507Z,82.87
2019-01-23T09:49:05.921Z,80.03
2019-01-23T09:54:14.346Z,75.50
2019-01-23T09:59:20.604Z,75.50
2019-01-23T10:04:27.090Z,68.40
2019-01-23T10:09:45.064Z,78.00
2019-01-23T10:14:51.462Z,82.43
2019-01-23T10:19:57.824Z,75.73
2019-01-23T10:25:04.492Z,81.63
2019-01-23T10:30:14.721Z,82.60
2019-01-23T10:35:21.068Z,85.27
2019-01-23T10:40:49.031Z,44.73
2019-01-23T10:45:55.149Z,61.27
2019-01-23T10:51:01.557Z,50.60
2019-01-23T10:56:07.831Z,47.87
2019-01-23T11:01:15.375Z,20.80
2019-01-23T11:06:23.105Z,55.30
2019-01-23T11:11:29.201Z,56.87
2019-01-23T11:16:47.451Z,55.23
2019-01-23T11:21:53.834Z,43.43
2019-01-23T11:27:00.373Z,60.50
2019-01-23T11:32:06.858Z,69.77
2019-01-23T11:37:33.846Z,61.87
2019-01-23T11:42:39.954Z,15.27
2019-01-23T11:47:45.375Z,57.07
2019-01-23T11:52:51.000Z,56.17
2019-01-23T11:57:57.471Z,57.90
2019-01-23T12:03:03.841Z,59.53
2019-01-23T12:08:10.405Z,57.33
2019-01-23T12:13:16.775Z,57.30
2019-01-23T12:18:22.974Z,51.00
2019-01-23T12:23:29.191Z,50.67
2019-01-23T12:28:35.558Z,49.13
2019-01-23T12:33:40.816Z,56.57
2019-01-23T12:38:46.089Z,57.33
2019-01-23T12:43:51.369Z,46.23
2019-01-23T12:48:57.623Z,51.50
2019-01-23T12:54:04.038Z,47.10
2019-01-23T12:59:10.072Z,45.33
2019-01-23T13:04:16.115Z,42.97
2019-01-23T13:09:21.961Z,38.30
2019-01-23T13:14:41.570Z,35.20
2019-01-23T13:19:47.823Z,48.20
2019-01-23T13:24:54.011Z,45.13
2019-01-23T13:30:00.172Z,37.77
2019-01-23T13:35:11.099Z,39.23
2019-01-23T13:40:24.069Z,37.57
2019-01-23T13:45:30.301Z,34.57
2019-01-23T13:50:37.493Z,34.67
2019-01-23T13:55:42.894Z,30.37
2019-01-23T14:00:49.460Z,36.43
2019-01-23T14:05:55.800Z,28.43
2019-01-23T14:11:02.199Z,30.00
2019-01-23T14:16:08.762Z,32.20
2019-01-23T14:21:14.967Z,29.93
2019-01-23T14:26:21.299Z,28.20
2019-01-23T14:31:28.084Z,33.90
2019-01-23T14:36:34.382Z,29.63
2019-01-23T14:41:40.514Z,21.87
2019-01-23T14:46:45.746Z,29.40
2019-01-23T14:51:51.950Z,23.43
2019-01-23T14:56:57.837Z,21.27
2019-01-23T15:02:10.068Z,26.10
2019-01-23T15:07:38.991Z,25.33
2019-01-23T15:12:44.335Z,32.13
2019-01-23T15:17:50.800Z,33.50
2019-01-23T15:22:59.921Z,30.30
2019-01-23T15:28:06.092Z,33.93
2019-01-23T15:33:12.463Z,29.13
2019-01-23T15:38:18.758Z,35.33
2019-01-23T15:43:37.572Z,32.30
2019-01-23T15:48:42.901Z,36.80
2019-01-23T15:53:49.644Z,33.03
2019-01-23T15:58:55.840Z,38.60
2019-01-23T16:04:02.074Z,32.57
2019-01-23T16:09:08.500Z,31.60
2019-01-23T16:14:14.970Z,32.80
2019-01-23T16:19:21.305Z,39.93
2019-01-23T16:24:27.582Z,43.33
2019-01-23T16:29:45.597Z,64.33
2019-01-23T16:34:51.248Z,134.80
2019-01-23T16:39:58.174Z,157.63
2019-01-23T16:45:09.834Z,187.27
2019-01-23T16:50:22.340Z,191.33
2019-01-23T16:55:28.809Z,183.17
2019-01-23T17:00:35.768Z,212.37
2019-01-23T17:05:41.162Z,213.57
2019-01-23T17:10:46.880Z,226.87
2019-01-23T17:15:52.465Z,217.63
2019-01-23T17:21:17.239Z,211.27
2019-01-23T17:26:23.920Z,215.47
2019-01-23T17:31:30.324Z,241.63
2019-01-23T17:36:36.771Z,222.83
2019-01-23T17:41:42.370Z,224.73
2019-01-23T17:46:50.505Z,222.43
2019-01-23T17:51:57.087Z,247.80
2019-01-23T17:57:03.670Z,222.60
2019-01-23T18:02:10.259Z,213.57
2019-01-23T18:07:16.920Z,211.00
2019-01-23T18:12:44.055Z,216.50
2019-01-23T18:17:50.567Z,200.13
2019-01-23T18:22:57.308Z,201.33
2019-01-23T18:28:03.879Z,193.87
2019-01-23T18:33:39.014Z,203.30
2019-01-23T18:39:09.156Z,188.83
2019-01-23T18:44:41.740Z,215.30
2019-01-23T18:50:08.946Z,194.73
2019-01-23T18:55:18.262Z,196.70
2019-01-23T19:00:24.677Z,194.53
2019-01-23T19:05:42.932Z,202.97
2019-01-23T19:10:50.364Z,197.20
2019-01-23T19:15:56.896Z,181.97
2019-01-23T19:21:05.068Z,174.63
2019-01-23T19:26:33.034Z,193.97
2019-01-23T19:31:39.575Z,212.50
2019-01-23T19:36:45.235Z,181.70
2019-01-23T19:41:51.755Z,195.60
2019-01-23T19:46:58.226Z,180.40
2019-01-23T19:52:06.146Z,186.83
2019-01-23T19:57:12.880Z,196.50
2019-01-23T20:02:19.643Z,178.40
2019-01-23T20:07:26.353Z,182.63
2019-01-23T20:12:32.990Z,179.00
2019-01-23T20:17:40.113Z,200.63
2019-01-23T20:22:46.438Z,170.77
2019-01-23T20:27:52.109Z,162.27
2019-01-23T20:32:59.002Z,184.17
2019-01-23T20:38:05.540Z,188.43
2019-01-23T20:43:12.384Z,175.83
2019-01-23T20:48:18.873Z,165.83
2019-01-23T20:53:25.384Z,191.70
2019-01-23T20:58:32.093Z,174.30
2019-01-23T21:03:38.485Z,174.10
2019-01-23T21:08:44.118Z,155.07
2019-01-23T21:13:50.917Z,164.20
2019-01-23T21:18:57.437Z,183.93
2019-01-23T21:24:03.969Z,137.23
2019-01-23T21:29:10.605Z,171.67
2019-01-23T21:34:16.930Z,176.87
2019-01-23T21:39:23.316Z,158.07
2019-01-23T21:44:29.462Z,150.73
2019-01-23T21:49:35.668Z,163.77
2019-01-23T21:54:42.011Z,179.40
2019-01-23T21:59:48.603Z,177.43
2019-01-23T22:04:55.228Z,174.20
2019-01-23T22:10:01.869Z,160.37
2019-01-23T22:15:32.559Z,142.57
2019-01-23T22:20:39.097Z,133.37
2019-01-23T22:25:44.743Z,139.67
2019-01-23T22:30:51.320Z,149.07
2019-01-23T22:35:57.855Z,143.13
2019-01-23T22:41:04.467Z,156.13
2019-01-23T22:46:11.113Z,167.43
2019-01-23T22:51:17.852Z,154.77
2019-01-23T22:56:24.385Z,142.17
2019-01-23T23:01:30.868Z,174.03
2019-01-23T23:06:37.422Z,154.23
2019-01-23T23:11:43.170Z,155.80
2019-01-23T23:16:49.705Z,162.03
2019-01-23T23:21:56.203Z,131.57
2019-01-23T23:27:02.377Z,129.33
2019-01-23T23:32:09.061Z,143.73
2019-01-23T23:37:15.843Z,149.67
2019-01-23T23:42:22.352Z,152.43
2019-01-23T23:47:29.042Z,150.67
2019-01-23T23:53:15.441Z,148.97
2019-01-23T23:58:22.111Z,142.53
